aviador You're here:

OJAQ Decoded Metar

AQABA in JORDAN
Report Time2017-10-22 17:00:00
UTC Time2017-10-22 17:23:45
Flight Rules vfr VFR
Wind340° at 07 kt
W.Decomp.*RWY 01: 5.9 kt HW 3.8 kt LCW
W.Rank340° ranks 4
Current wind is below 340° avg. (9.8)
Visibility9999 m
Phenomena:N/A
Clouds:N/A
Expected CloudBase > 4,400 ft AGL from Temp-Dew spread
CeilingNone
Temp27°C (ISA +12)
Dew Point16°C (51% RH)
Heat Index27.5°C
AAT26.5°C
QNH1009 hPa
Density Alt1,965 ft
Elevation167 ft
Report Wrong Elevation
Raw Report
METAR OJAQ 221700Z 34007KT CAVOK 27/16 Q1009 NOSIG=####018000266####
SAIY35 LIIB 221700

Extra information for OJAQ:More info

Metar Taf Metar & Taf Last 4 Metars F.Rules Stats Wind Profile Meteogram Temp Stats Airport Information Weather charts Add Link Nearby VenuesMetar ALERT Operation Metar Decoded Social comments